WetterOnline ( https://www.wetteronline.de )

Wetter aktuell Cuxhaven

Aktuelles Wetter: Cuxhaven (12m)

6-stündlich | Neueste Meldungen
Ortszeit Temperatur Wetter
Di, 27.02. 19:00 3.1° C bedeckt
Di, 27.02. 13:00 3.6° C bedeckt
Di, 27.02. 7:00 2.2° C Nebel
Di, 27.02. 1:00 4.7° C wolkenlos
Mo, 26.02. 19:00 5.6° C bedeckt
Mo, 26.02. 13:00 4.4° C bewölkt
Mo, 26.02. 7:00 4.1° C wolkig
Mo, 26.02. 1:00 5.1° C leicht bewölkt
Ortszeit Temperatur Wetter
Mi, 28.02. 0:00 3.1° C bedeckt
Di, 27.02. 23:50 3.1° C bedeckt
Di, 27.02. 23:40 3.1° C bedeckt
Di, 27.02. 23:30 3.1° C bedeckt
Di, 27.02. 23:20 3.1° C bedeckt
Di, 27.02. 23:10 3.2° C bedeckt
Di, 27.02. 23:00 3.2° C bedeckt
Di, 27.02. 22:30 3.3° C bedeckt
Di, 27.02. 22:00 3.3° C bedeckt
Di, 27.02. 21:30 3.2° C bedeckt
Di, 27.02. 21:00 3.0° C bedeckt
Ortszeit Relative Feuchte Sichtweite
Di, 27.02. 19:00 85% 18 km
Di, 27.02. 13:00 87% 18 km
Di, 27.02. 7:00 99% 0.9 km
Di, 27.02. 1:00 87% 24 km
Mo, 26.02. 19:00 86% 25 km
Mo, 26.02. 13:00 89% 16 km
Mo, 26.02. 7:00 84% 60 km
Mo, 26.02. 1:00 85% 65 km
Ortszeit Relative Feuchte Sichtweite
Mi, 28.02. 0:00 79% 19 km
Di, 27.02. 23:50 79% -
Di, 27.02. 23:40 79% -
Di, 27.02. 23:30 79% 17 km
Di, 27.02. 23:20 79% -
Di, 27.02. 23:10 79% -
Di, 27.02. 23:00 79% 19 km
Di, 27.02. 22:30 83% 13 km
Di, 27.02. 22:00 81% 16 km
Di, 27.02. 21:30 84% 14 km
Di, 27.02. 21:00 83% 14 km
Ortszeit Niederschlagsmenge Niederschlagsart
Di, 27.02. 19:00 0.0 l/m2 in 12 Std. -
Di, 27.02. 13:00 0.0 l/m2 in 6 Std. -
Di, 27.02. 7:00 0.0 l/m2 in 12 Std. -
Di, 27.02. 1:00 0.0 l/m2 in 6 Std. -
Mo, 26.02. 19:00 0.0 l/m2 in 12 Std. -
Mo, 26.02. 13:00 0.0 l/m2 in 6 Std. -
Mo, 26.02. 7:00 0.0 l/m2 in 12 Std. -
Mo, 26.02. 1:00 0.0 l/m2 in 6 Std. -
Ortszeit Niederschlagsmenge Niederschlagsart
Mi, 28.02. 0:00 0.0 l/m2 in 1 Std. -
Di, 27.02. 23:50 keine Meldung -
Di, 27.02. 23:40 keine Meldung -
Di, 27.02. 23:30 0.0 l/m2 in 30 Min -
Di, 27.02. 23:20 keine Meldung -
Di, 27.02. 23:10 keine Meldung -
Di, 27.02. 23:00 0.0 l/m2 in 1 Std. -
Di, 27.02. 22:30 0.0 l/m2 in 30 Min -
Di, 27.02. 22:00 0.0 l/m2 in 1 Std. -
Di, 27.02. 21:30 0.0 l/m2 in 30 Min -
Di, 27.02. 21:00 0.0 l/m2 in 1 Std. -
Ortszeit Stärke Spitze Richtung
km/h Bft. km/h Grad Sektor
Di, 27.02. 19:00 7 2 15 250° W
Di, 27.02. 13:00 4 1 22 120° SO
Di, 27.02. 7:00 13 3 31 60° NO
Di, 27.02. 1:00 17 3 28 40° NO
Mo, 26.02. 19:00 14 3 36 40° NO
Mo, 26.02. 13:00 19 3 35 40° NO
Mo, 26.02. 7:00 19 3 26 40° NO
Mo, 26.02. 1:00 17 3 22 40° NO
Ortszeit Stärke Spitze Richtung
km/h Bft. km/h Grad Sektor
Mi, 28.02. 0:00 9 2 19 210° SW
Di, 27.02. 23:50 9 2 - 210° SW
Di, 27.02. 23:40 7 2 - 210° SW
Di, 27.02. 23:30 7 2 18 180° S
Di, 27.02. 23:20 7 2 - 180° S
Di, 27.02. 23:10 7 2 - 170° S
Di, 27.02. 23:00 11 2 18 210° SW
Di, 27.02. 22:30 6 1 17 190° S
Di, 27.02. 22:00 9 2 20 220° SW
Di, 27.02. 21:30 4 1 11 220° SW
Di, 27.02. 21:00 7 2 14 230° SW
Ortszeit Untergrenze Bedeckung Gattung
total tief tief mittel hoch
Di, 27.02. 19:00 270 m 8/8 8/8 - - -
Di, 27.02. 13:00 210 m 8/8 8/8 - - -
Di, 27.02. 7:00 30 m 8/8 8/8 - - -
Di, 27.02. 1:00 - 0/8 0/8 - - -
Mo, 26.02. 19:00 4800 m 8/8 8/8 - - -
Mo, 26.02. 13:00 210 m 8/8 6/8 - - -
Mo, 26.02. 7:00 510 m 8/8 1/8 - - -
Mo, 26.02. 1:00 450 m 3/8 3/8 - - -
Ortszeit Bedeckungsgrad in Achtel und Wolkenuntergrenze
Mi, 28.02. 0:00 8(480m)
Di, 27.02. 23:50 8(480m)
Di, 27.02. 23:40 8
Di, 27.02. 23:30 8(480m)
Di, 27.02. 23:20 8(480m)
Di, 27.02. 23:10 8
Di, 27.02. 23:00 8(420m)
Di, 27.02. 22:30 8(390m)
Di, 27.02. 22:00 8(390m)
Di, 27.02. 21:30 8(420m)
Di, 27.02. 21:00 8(390m)
Ortszeit Luftdruck NN (hPa) Tendenz (hPa in 3 Std.)
Di, 27.02. 19:00 1019 + 0,6
Di, 27.02. 13:00 1020 - 0,1
Di, 27.02. 7:00 1019 + 0,7
Di, 27.02. 1:00 1017 + 1,2
Mo, 26.02. 19:00 1014 + 2,1
Mo, 26.02. 13:00 1010 + 1,3
Mo, 26.02. 7:00 1007 + 1,8
Mo, 26.02. 1:00 1004 + 0,8
Ortszeit Luftdruck NN (hPa) Tendenz (hPa in 3 Std.)
Mi, 28.02. 0:00 1020 + 0,4
Di, 27.02. 23:50 1020 keine Meldung
Di, 27.02. 23:40 1020 keine Meldung
Di, 27.02. 23:30 1020 + 0,1
Di, 27.02. 23:20 1020 keine Meldung
Di, 27.02. 23:10 1020 keine Meldung
Di, 27.02. 23:00 1020 + 0,2
Di, 27.02. 22:30 1020 + 0,4
Di, 27.02. 22:00 1020 + 0,3
Di, 27.02. 21:30 1020 + 0,4
Di, 27.02. 21:00 1020 + 0,6
Ortszeit Schneehöhe (cm)
Di, 27.02. 19:00 0
Di, 27.02. 13:00 0
Di, 27.02. 7:00 0
Di, 27.02. 1:00 0
Mo, 26.02. 19:00 0
Mo, 26.02. 13:00 0
Mo, 26.02. 7:00 0
Mo, 26.02. 1:00 0
Ortszeit Schneehöhe (cm)
Mi, 28.02. 0:00 0
Di, 27.02. 23:50 0
Di, 27.02. 23:40 -
Di, 27.02. 23:30 0
Di, 27.02. 23:20 0
Di, 27.02. 23:10 -
Di, 27.02. 23:00 0
Di, 27.02. 22:30 0
Di, 27.02. 22:00 0
Di, 27.02. 21:30 0
Di, 27.02. 21:00 0
Link zu dieser Seite / Seite empfehlen

Das Wetter in ...